Terminal Aerodrome Forecast
Issued by NWS

Current Version | Previous Version | Text Only | Print | Product List | Glossary Off
Versions: 1 2 3 4 5 6 7 8 9 10 11 12 13 14 15

000
FTUS41 KPBZ 171725
TAFMGW
TAF
KMGW 171725Z 1718/1818 28005KT P6SM BKN250
      TEMPO 1718/1721 P6SM BKN050
     FM172100 VRB04KT P6SM VCSH BKN050
     FM180200 36002KT 6SM BR SKC
     FM180900 00000KT 1 1/2SM BR FEW250
     FM181500 27004KT P6SM BKN250=

USA.gov is the U.S. government's official web portal to all federal, state and local government web resources and services.